createdAt,value
2023-02-19T00:02:19.718Z,86.76
2023-02-19T00:04:47.499Z,86.68
2023-02-19T00:07:15.153Z,86.57
2023-02-19T00:09:42.851Z,86.23
2023-02-19T00:12:10.665Z,85.82
2023-02-19T00:14:38.310Z,86.02
2023-02-19T00:17:06.092Z,86.12
2023-02-19T00:19:33.755Z,86.05
2023-02-19T00:22:01.510Z,86.12
2023-02-19T00:24:29.158Z,86.03
2023-02-19T00:26:56.849Z,86.18
2023-02-19T00:29:25.307Z,86.09
2023-02-19T00:31:53.033Z,86.11
2023-02-19T00:34:20.952Z,86.22
2023-02-19T00:36:48.617Z,85.86
2023-02-19T00:39:18.608Z,85.80
2023-02-19T00:41:46.792Z,85.82
2023-02-19T00:44:15.629Z,85.81
2023-02-19T00:46:46.619Z,85.68
2023-02-19T00:49:20.969Z,85.71
2023-02-19T00:51:50.020Z,85.51
2023-02-19T00:54:18.015Z,85.44
2023-02-19T00:56:45.884Z,85.33
2023-02-19T00:59:13.842Z,85.05
2023-02-19T02:08:32.183Z,83.17
2023-02-19T07:00:12.676Z,81.07
2023-02-19T07:02:40.605Z,81.21
2023-02-19T07:05:08.453Z,81.23
2023-02-19T07:07:36.424Z,81.19
2023-02-19T07:10:05.154Z,81.06
2023-02-19T07:12:32.985Z,81.19
2023-02-19T07:15:00.853Z,81.13
2023-02-19T07:17:32.197Z,81.12
2023-02-19T07:20:00.072Z,81.28
2023-02-19T07:22:28.048Z,81.16
2023-02-19T07:24:55.776Z,81.15
2023-02-19T07:27:23.863Z,81.34
2023-02-19T07:29:51.738Z,81.31
2023-02-19T07:32:19.593Z,81.24
2023-02-19T07:34:47.355Z,81.35
2023-02-19T07:37:15.225Z,81.34
2023-02-19T07:39:42.915Z,81.29
2023-02-19T07:42:10.755Z,81.53
2023-02-19T07:44:38.546Z,81.45
2023-02-19T07:47:06.358Z,81.48
2023-02-19T07:49:34.352Z,81.42
2023-02-19T07:52:02.318Z,81.49
2023-02-19T07:54:30.081Z,81.50
2023-02-19T07:56:58.149Z,81.51
2023-02-19T08:53:32.673Z,80.04
2023-02-19T08:56:08.516Z,79.20
2023-02-19T08:58:37.627Z,78.92
2023-02-19T09:01:12.050Z,79.12
2023-02-19T09:03:40.756Z,78.56
2023-02-19T09:06:14.767Z,78.25
2023-02-19T09:08:42.602Z,78.55
2023-02-19T09:11:10.695Z,78.76
2023-02-19T09:13:38.732Z,78.43
2023-02-19T09:16:07.111Z,77.55
2023-02-19T09:18:35.590Z,77.92
2023-02-19T09:21:05.325Z,78.00
2023-02-19T09:23:34.701Z,78.15
2023-02-19T09:26:06.981Z,76.99
2023-02-19T09:28:35.143Z,76.68
2023-02-19T09:31:07.744Z,76.70
2023-02-19T09:33:35.807Z,76.72
2023-02-19T09:36:04.404Z,76.87
2023-02-19T09:38:32.250Z,76.23
2023-02-19T09:41:07.946Z,76.41
2023-02-19T09:43:36.000Z,75.85
2023-02-19T09:46:12.054Z,75.20
2023-02-19T09:48:39.984Z,75.30
2023-02-19T09:51:11.034Z,75.10
2023-02-19T09:53:43.403Z,75.10
2023-02-19T09:56:11.365Z,74.80
2023-02-19T09:58:48.654Z,74.69
2023-02-19T10:01:17.907Z,74.65
2023-02-19T10:03:48.686Z,74.66
2023-02-19T10:06:23.973Z,74.68
2023-02-19T10:09:11.492Z,74.16
2023-02-19T10:11:39.737Z,74.04
2023-02-19T10:14:13.441Z,72.86
2023-02-19T10:16:45.592Z,73.53
2023-02-19T10:19:13.875Z,73.04
2023-02-19T10:21:42.805Z,73.36
2023-02-19T10:24:20.708Z,73.33
2023-02-19T10:26:50.382Z,73.04
2023-02-19T10:29:19.876Z,72.70
2023-02-19T10:31:48.465Z,72.99
2023-02-19T10:34:22.376Z,72.53
2023-02-19T10:36:51.685Z,71.93
2023-02-19T10:39:22.194Z,72.21
2023-02-19T10:41:51.698Z,72.60
2023-02-19T10:44:27.634Z,72.06
2023-02-19T10:46:59.406Z,71.88
2023-02-19T10:49:38.325Z,70.93
2023-02-19T10:52:35.479Z,70.84
2023-02-19T10:55:24.963Z,71.38
2023-02-19T10:57:52.830Z,70.98
2023-02-19T11:00:30.827Z,71.07
2023-02-19T11:03:18.088Z,69.77
2023-02-19T11:06:06.916Z,69.40
2023-02-19T11:08:40.711Z,69.01
2023-02-19T11:11:08.799Z,69.09
2023-02-19T11:13:38.179Z,68.43
2023-02-19T11:16:06.160Z,68.26
2023-02-19T11:18:36.365Z,68.67
2023-02-19T11:21:07.207Z,67.39
2023-02-19T11:23:38.454Z,66.49
2023-02-19T11:26:16.144Z,65.39
2023-02-19T11:28:44.327Z,65.77
2023-02-19T11:31:29.687Z,65.80
2023-02-19T11:34:13.839Z,64.99
2023-02-19T11:36:42.694Z,64.83
2023-02-19T11:39:16.672Z,65.67
2023-02-19T11:41:56.523Z,66.18
2023-02-19T11:44:36.641Z,65.59
2023-02-19T11:47:32.363Z,66.79
2023-02-19T11:50:14.176Z,65.85
2023-02-19T11:53:15.546Z,64.81
2023-02-19T11:55:55.050Z,63.16
2023-02-19T11:58:44.948Z,64.20
2023-02-19T12:01:38.854Z,65.19
2023-02-19T12:04:37.745Z,64.56
2023-02-19T12:07:24.146Z,65.51
2023-02-19T12:10:25.847Z,64.98
2023-02-19T12:13:43.589Z,63.83
2023-02-19T12:16:48.029Z,64.31
2023-02-19T12:19:26.211Z,63.97
2023-02-19T12:21:58.275Z,63.49
2023-02-19T12:24:54.617Z,63.44
2023-02-19T12:27:25.298Z,63.12
2023-02-19T12:30:17.437Z,63.78
2023-02-19T12:32:54.051Z,64.29
2023-02-19T12:35:51.094Z,64.05
2023-02-19T12:38:35.573Z,64.44
2023-02-19T12:41:20.103Z,64.51
2023-02-19T12:44:00.470Z,64.65
2023-02-19T12:46:33.552Z,65.10
2023-02-19T12:49:15.568Z,64.94
2023-02-19T12:51:55.396Z,65.25
2023-02-19T12:54:34.014Z,65.01
2023-02-19T12:57:16.222Z,64.76
2023-02-19T12:59:55.473Z,65.16
2023-02-19T13:02:28.812Z,65.15
2023-02-19T13:05:14.718Z,64.88
2023-02-19T13:08:12.296Z,65.03
2023-02-19T13:10:59.653Z,65.49
2023-02-19T13:13:46.426Z,65.51
2023-02-19T13:16:20.925Z,65.30
2023-02-19T13:18:59.341Z,64.92
2023-02-19T13:21:54.171Z,65.18
2023-02-19T13:24:34.530Z,65.14
2023-02-19T13:27:11.706Z,64.97
2023-02-19T13:29:45.697Z,64.62
2023-02-19T13:32:48.865Z,65.16
2023-02-19T13:35:28.354Z,64.44
2023-02-19T13:38:01.538Z,64.88
2023-02-19T13:40:29.714Z,64.04
2023-02-19T13:43:00.746Z,64.43
2023-02-19T13:45:33.750Z,64.05
2023-02-19T13:48:12.993Z,64.09
2023-02-19T13:50:41.852Z,63.85
2023-02-19T13:53:48.159Z,63.46
2023-02-19T13:56:34.479Z,62.44
2023-02-19T13:59:11.400Z,60.43
2023-02-19T14:01:54.416Z,60.84
2023-02-19T14:04:40.378Z,60.06
2023-02-19T14:07:08.069Z,60.40
2023-02-19T14:09:44.043Z,60.59
2023-02-19T14:12:16.117Z,59.71
2023-02-19T14:14:53.885Z,59.77
2023-02-19T14:17:42.531Z,59.15
2023-02-19T14:20:10.223Z,58.35
2023-02-19T14:22:47.726Z,58.24
2023-02-19T14:25:28.684Z,58.40
2023-02-19T14:28:25.058Z,59.11
2023-02-19T14:31:17.224Z,58.73
2023-02-19T14:33:58.243Z,58.78
2023-02-19T14:36:40.815Z,59.55
2023-02-19T14:39:17.179Z,59.41
2023-02-19T14:41:49.874Z,59.80
2023-02-19T14:44:25.917Z,60.25
2023-02-19T14:47:15.638Z,59.64
2023-02-19T14:49:51.658Z,60.00
2023-02-19T14:52:34.664Z,60.36
2023-02-19T14:55:24.140Z,59.74
2023-02-19T14:57:54.482Z,59.05
2023-02-19T15:00:25.312Z,59.17
2023-02-19T15:02:59.796Z,58.72
2023-02-19T15:05:31.218Z,59.05
2023-02-19T15:08:03.330Z,58.27
2023-02-19T15:10:33.469Z,58.39
2023-02-19T15:13:05.125Z,58.40
2023-02-19T15:15:36.560Z,58.69
2023-02-19T15:18:05.542Z,58.43
2023-02-19T15:20:37.065Z,58.45
2023-02-19T15:23:07.725Z,58.46
2023-02-19T15:25:38.766Z,58.41
2023-02-19T15:28:43.191Z,58.79
2023-02-19T15:31:15.623Z,59.03
2023-02-19T15:33:52.148Z,59.44
2023-02-19T15:36:37.923Z,59.97
2023-02-19T15:39:05.789Z,60.35
2023-02-19T15:41:35.330Z,60.44
2023-02-19T15:44:11.243Z,60.64
2023-02-19T15:46:41.161Z,60.90
2023-02-19T15:49:15.069Z,61.16
2023-02-19T15:51:56.860Z,61.25
2023-02-19T15:55:09.379Z,61.49
2023-02-19T15:57:42.877Z,61.67
2023-02-19T16:00:18.147Z,61.94
2023-02-19T16:02:47.027Z,62.20
2023-02-19T16:05:24.188Z,62.26
2023-02-19T16:08:17.292Z,62.50
2023-02-19T16:10:56.797Z,62.46
2023-02-19T16:13:30.898Z,62.40
2023-02-19T16:16:06.460Z,62.54
2023-02-19T16:18:35.157Z,62.62
2023-02-19T16:21:09.573Z,62.57
2023-02-19T16:23:43.232Z,62.96
2023-02-19T16:26:11.526Z,63.00
2023-02-19T16:28:41.436Z,63.26
2023-02-19T16:31:12.527Z,63.24
2023-02-19T16:33:48.762Z,63.47
2023-02-19T16:36:35.189Z,63.58
2023-02-19T16:39:08.756Z,63.55
2023-02-19T16:41:39.579Z,63.73
2023-02-19T16:44:25.969Z,63.70
2023-02-19T16:46:57.853Z,63.69
2023-02-19T16:49:25.702Z,63.57
2023-02-19T16:51:54.891Z,63.62
2023-02-19T16:54:22.666Z,63.62
2023-02-19T16:56:50.433Z,63.43
2023-02-19T16:59:18.396Z,63.58
2023-02-19T17:01:46.476Z,63.57
2023-02-19T17:04:15.992Z,63.62
2023-02-19T17:06:45.684Z,63.56
2023-02-19T17:09:13.552Z,63.47
2023-02-19T17:11:41.409Z,63.44
2023-02-19T17:14:09.478Z,63.76
2023-02-19T17:16:40.657Z,63.68
2023-02-19T17:19:18.330Z,64.02
2023-02-19T17:21:47.209Z,63.90
2023-02-19T17:24:15.227Z,64.11
2023-02-19T17:26:43.251Z,64.15
2023-02-19T17:29:14.293Z,64.15
2023-02-19T17:31:42.439Z,64.29
2023-02-19T17:34:10.756Z,64.49
2023-02-19T17:36:38.600Z,64.66
2023-02-19T17:39:12.201Z,64.92
2023-02-19T17:41:40.005Z,65.07
2023-02-19T17:44:07.770Z,65.03
2023-02-19T17:46:35.605Z,65.38
2023-02-19T17:49:03.754Z,65.24
2023-02-19T17:51:31.627Z,65.33
2023-02-19T17:53:59.700Z,65.52
2023-02-19T17:56:28.286Z,65.78
2023-02-19T17:58:57.755Z,65.85
2023-02-19T18:01:25.732Z,65.77
2023-02-19T18:03:53.958Z,65.90
2023-02-19T18:06:21.809Z,66.27
2023-02-19T18:08:52.436Z,66.02
2023-02-19T18:11:22.387Z,66.20
2023-02-19T18:13:52.003Z,66.12
2023-02-19T18:16:20.024Z,66.24
2023-02-19T18:18:47.888Z,66.25
2023-02-19T18:21:15.970Z,66.16
2023-02-19T18:23:43.927Z,66.24
2023-02-19T18:26:13.834Z,66.20
2023-02-19T18:28:41.920Z,66.23
2023-02-19T18:31:10.040Z,66.27
2023-02-19T18:33:38.472Z,65.92
2023-02-19T18:36:11.370Z,65.92
2023-02-19T18:38:39.609Z,65.96
2023-02-19T18:41:12.314Z,65.89
2023-02-19T18:43:42.026Z,66.00
2023-02-19T18:46:10.793Z,65.90
2023-02-19T18:48:39.284Z,65.75
2023-02-19T18:51:10.921Z,65.61
2023-02-19T18:53:39.228Z,65.74
2023-02-19T18:56:09.364Z,65.70
2023-02-19T18:58:37.591Z,65.81
2023-02-19T19:01:05.716Z,65.85
2023-02-19T19:03:34.173Z,65.79
2023-02-19T19:06:02.315Z,65.96
2023-02-19T19:08:30.821Z,66.00
2023-02-19T19:10:58.768Z,65.92
2023-02-19T19:13:26.629Z,65.85
2023-02-19T19:15:54.627Z,65.90
2023-02-19T19:18:22.667Z,65.85
2023-02-19T19:20:50.740Z,65.74
2023-02-19T19:23:18.846Z,65.77
2023-02-19T19:25:46.683Z,65.46
2023-02-19T19:28:14.791Z,65.55
2023-02-19T19:30:43.053Z,65.52
2023-02-19T19:33:12.130Z,65.52
2023-02-19T19:35:42.234Z,65.29
2023-02-19T19:38:10.202Z,65.24
2023-02-19T19:40:38.744Z,65.51
2023-02-19T19:43:06.958Z,65.40
2023-02-19T19:45:35.469Z,65.02
2023-02-19T19:48:03.404Z,65.01
2023-02-19T19:50:31.372Z,65.36
2023-02-19T19:52:59.238Z,65.28
2023-02-19T19:55:27.005Z,65.29
2023-02-19T19:57:54.978Z,65.16
2023-02-19T20:00:24.584Z,65.15
2023-02-19T20:02:52.665Z,65.28
2023-02-19T20:05:20.923Z,65.40
2023-02-19T20:07:49.711Z,65.28
2023-02-19T20:10:19.440Z,65.42
2023-02-19T20:12:47.594Z,65.36
2023-02-19T20:15:20.823Z,65.34
2023-02-19T20:17:49.686Z,65.63
2023-02-19T20:20:18.665Z,65.75
2023-02-19T20:22:46.532Z,65.62
2023-02-19T20:25:16.236Z,65.80
2023-02-19T20:27:44.104Z,65.76
2023-02-19T20:30:13.884Z,65.85
2023-02-19T20:32:41.609Z,65.96
2023-02-19T20:35:09.773Z,65.73
2023-02-19T20:37:41.286Z,65.70
2023-02-19T20:40:11.813Z,65.89
2023-02-19T20:42:39.922Z,66.00
2023-02-19T20:45:08.503Z,65.85
2023-02-19T20:47:38.804Z,66.02
2023-02-19T20:50:08.226Z,66.02
2023-02-19T20:52:36.725Z,66.20
2023-02-19T20:55:05.493Z,66.39
2023-02-19T20:57:33.563Z,66.07
2023-02-19T21:00:01.749Z,66.29
2023-02-19T21:02:30.243Z,66.42
2023-02-19T21:04:58.280Z,66.50
2023-02-19T21:07:26.498Z,66.28
2023-02-19T21:09:55.040Z,66.40
2023-02-19T21:12:23.093Z,66.46
2023-02-19T21:14:50.867Z,66.68
2023-02-19T21:17:18.728Z,66.62
2023-02-19T21:19:50.161Z,66.71
2023-02-19T21:22:18.140Z,66.65
2023-02-19T21:24:49.690Z,67.35
2023-02-19T21:27:18.428Z,67.18
2023-02-19T21:29:47.386Z,67.40
2023-02-19T21:32:15.298Z,67.52
2023-02-19T21:34:43.283Z,67.63
2023-02-19T21:37:11.167Z,67.54
2023-02-19T21:39:39.340Z,67.94
2023-02-19T21:42:07.105Z,68.08
2023-02-19T21:44:35.076Z,68.34
2023-02-19T21:47:03.144Z,68.42
2023-02-19T21:49:31.009Z,68.34
2023-02-19T21:51:59.089Z,68.49
2023-02-19T21:54:27.409Z,68.70
2023-02-19T21:56:55.660Z,68.85
2023-02-19T21:59:23.708Z,68.86
2023-02-19T22:01:51.675Z,68.76
2023-02-19T22:04:24.614Z,69.09
2023-02-19T22:06:56.950Z,69.58
2023-02-19T22:09:24.861Z,69.88
2023-02-19T22:11:52.754Z,70.38
2023-02-19T22:14:20.730Z,70.00
2023-02-19T22:16:48.572Z,70.11
2023-02-19T22:19:16.664Z,70.55
2023-02-19T22:21:45.570Z,70.70
2023-02-19T22:24:21.509Z,70.88
2023-02-19T22:26:50.908Z,70.85
2023-02-19T22:29:19.491Z,71.28
2023-02-19T22:31:47.595Z,71.65
2023-02-19T22:34:16.450Z,71.72
2023-02-19T22:36:44.320Z,72.04
2023-02-19T22:39:24.419Z,72.03
2023-02-19T22:41:53.444Z,71.87
2023-02-19T22:44:21.535Z,72.20
2023-02-19T22:46:55.293Z,71.77
2023-02-19T22:49:24.089Z,71.88
2023-02-19T22:51:57.925Z,72.12
2023-02-19T22:54:27.230Z,72.42
2023-02-19T22:56:55.924Z,72.19
2023-02-19T22:59:24.001Z,72.17
2023-02-19T23:01:52.465Z,72.34
2023-02-19T23:04:22.028Z,72.35
2023-02-19T23:06:50.630Z,72.28
2023-02-19T23:09:28.674Z,72.08
2023-02-19T23:12:03.688Z,72.14
2023-02-19T23:14:31.808Z,72.01
2023-02-19T23:16:59.959Z,72.18
2023-02-19T23:19:28.255Z,72.08
2023-02-19T23:21:56.280Z,72.06
2023-02-19T23:24:24.352Z,72.05
2023-02-19T23:26:53.675Z,71.92
2023-02-19T23:29:25.375Z,71.83
2023-02-19T23:31:54.599Z,71.86
2023-02-19T23:34:24.456Z,71.91
2023-02-19T23:36:52.691Z,71.52
2023-02-19T23:39:21.891Z,71.78
2023-02-19T23:41:52.308Z,71.78
2023-02-19T23:44:21.915Z,71.70
2023-02-19T23:46:51.213Z,72.02
2023-02-19T23:49:19.608Z,72.40
2023-02-19T23:51:47.458Z,72.27
2023-02-19T23:54:15.732Z,72.04
2023-02-19T23:56:43.847Z,72.32
2023-02-19T23:59:12.498Z,72.20
